createdAt,value
2019-06-10T00:00:51.128Z,56.57
2019-06-10T00:15:51.573Z,57.31
2019-06-10T00:30:51.623Z,57.62
2019-06-10T00:45:53.398Z,57.96
2019-06-10T01:00:51.850Z,57.77
2019-06-10T01:15:51.233Z,57.84
2019-06-10T01:30:51.679Z,57.94
2019-06-10T01:45:53.756Z,57.95
2019-06-10T02:00:55.091Z,57.94
2019-06-10T02:15:51.467Z,57.98
2019-06-10T02:30:55.449Z,57.82
2019-06-10T02:45:53.051Z,57.78
2019-06-10T03:00:54.305Z,60.39
2019-06-10T03:30:55.290Z,57.42
2019-06-10T03:45:53.138Z,57.35
2019-06-10T04:00:52.247Z,58.53
2019-06-10T04:15:53.303Z,59.26
2019-06-10T04:30:53.087Z,57.47
2019-06-10T04:45:52.773Z,54.97
2019-06-10T05:00:52.381Z,53.32
2019-06-10T05:15:52.679Z,52.73
2019-06-10T05:30:53.179Z,50.50
2019-06-10T05:45:53.000Z,46.46
2019-06-10T06:00:53.271Z,44.76
2019-06-10T06:15:52.743Z,42.38
2019-06-10T06:30:52.692Z,41.09
2019-06-10T06:45:52.988Z,39.09
2019-06-10T07:01:03.712Z,41.17
2019-06-10T07:15:53.332Z,40.30
2019-06-10T07:30:54.980Z,41.36
2019-06-10T07:45:53.420Z,43.19
2019-06-10T08:00:53.141Z,44.31
2019-06-10T08:15:53.219Z,42.57
2019-06-10T08:30:53.197Z,43.10
2019-06-10T08:45:53.010Z,40.83
2019-06-10T09:00:53.508Z,38.42
2019-06-10T09:16:09.208Z,38.88
2019-06-10T09:30:59.672Z,40.61
2019-06-10T09:45:55.409Z,41.18
2019-06-10T10:00:57.764Z,45.55
2019-06-10T10:15:53.872Z,45.70
2019-06-10T10:30:52.709Z,54.94
2019-06-10T10:45:54.515Z,51.94
2019-06-10T11:00:54.490Z,50.54
2019-06-10T11:15:54.921Z,48.70
2019-06-10T11:30:55.430Z,48.75
2019-06-10T11:45:56.879Z,46.86
2019-06-10T12:00:55.859Z,48.15
2019-06-10T12:16:48.147Z,51.85
2019-06-10T12:17:17.482Z,52.71
2019-06-10T12:31:01.079Z,55.50
2019-06-10T12:45:52.968Z,55.12
2019-06-10T13:00:53.161Z,54.33
2019-06-10T13:15:53.274Z,52.58
2019-06-10T13:30:54.021Z,50.22
2019-06-10T13:45:52.963Z,50.08
2019-06-10T14:00:53.666Z,54.11
2019-06-10T14:15:53.371Z,57.75
2019-06-10T14:30:53.905Z,58.69
2019-06-10T14:45:53.468Z,57.50
2019-06-10T15:00:54.168Z,57.86
2019-06-10T15:15:53.431Z,58.38
2019-06-10T15:30:52.412Z,57.97
2019-06-10T15:45:52.563Z,57.77
2019-06-10T16:00:53.493Z,57.85
2019-06-10T16:30:54.110Z,56.99
2019-06-10T16:45:57.005Z,58.20
2019-06-10T17:00:50.604Z,58.26
2019-06-10T17:15:51.069Z,57.74
2019-06-10T17:30:52.992Z,59.81
2019-06-10T17:45:54.082Z,60.84
2019-06-10T18:00:53.038Z,63.75
2019-06-10T18:15:53.404Z,62.04
2019-06-10T18:30:53.243Z,59.78
2019-06-10T18:45:52.981Z,61.45
2019-06-10T19:01:05.276Z,62.99
2019-06-10T19:30:53.569Z,64.87
2019-06-10T19:45:52.898Z,67.03
2019-06-10T20:00:54.077Z,63.56
2019-06-10T20:15:52.493Z,63.58
2019-06-10T20:30:54.089Z,63.00
2019-06-10T20:45:51.118Z,62.14
2019-06-10T21:00:53.888Z,60.10
2019-06-10T21:15:55.095Z,60.95
2019-06-10T21:30:58.098Z,60.14
2019-06-10T21:45:56.177Z,58.53
2019-06-10T22:01:03.434Z,57.63
2019-06-10T22:15:57.156Z,57.50
2019-06-10T22:30:55.648Z,57.14
2019-06-10T22:45:55.934Z,56.84
2019-06-10T23:00:53.217Z,57.24
2019-06-10T23:15:53.471Z,56.97
2019-06-10T23:30:53.588Z,56.54
